Аэропорт: Бесовец. Петрозаводск

ICAO: ULPB

METAR:
2020-06-01 01:00:00
ULPB 010100Z AUTO 01003MPS 9999 // NSC 05/01 Q1025 RMK QFE765/1020
METAR:
Информация по данной станции не доступна